Albert J Ellis Airport
KOAJ : rendu visible

Aérodrome :











RETROUVEZ-NOUS SUR...

 
LOGIN :

S'inscrire | Disclaimer

   EN    FR    IT 

 









Légende :    VFR   VFR Marginal   IFR   IFR Intensif   IFR Très Intensif
Visi : 
Plafond : 
>= 8 km
>= 3000ft
5 à 8 km
1000 à 3000 ft
1500m à 5 km
500 à 1000 ft
800 à 1500m
200 à 500 ft
< 800m
< 200 ft
Symboles :   Orages  Brouillard  Fortes neiges  Fortes précipitations  Vent > 20 kt






- Altitude de l'aérodrome : 94 ft


KOAJ - Albert J Ellis

DERNIER METAR :
  • 200356Z AUTO 27003KT 6SM BR OVC023 08/08 A2991 RMK AO2 SLP132 T00830078

METARs EXPIRÉS :
  • 200256Z AUTO 00000KT 3SM BR FEW003 OVC025 07/07 A2992 RMK AO2 SLP134 T00720072 51015
  • 200246Z AUTO 00000KT 1SM BR FEW003 BKN025 07/07 A2992 RMK AO2
  • 200233Z 00000KT 1/4SM FG FEW003 SCT027 07/07 A2991 RMK AO2
  • 200227Z 00000KT 1/2SM FG VV003 07/07 A2991 RMK AO2
  • 200213Z 00000KT 3/4SM BR CLR 07/07 A2991 RMK AO2
  • 200156Z 00000KT 4SM BR FEW018 09/08 A2991 RMK AO2 SLP130 T00890078

TAF KOAJ
Valide du 20 à 02h jusqu'au 21 à 00h UTC


200220Z 2002/2024 VRB03KT 1SM BR SCT005
TEMPO 2002/2006 1/2SM FG VV002
FM200600 VRB02KT 2SM BR SCT005
FM201400 32008G13KT P6SM SKC AMD LTD TO CLD VIS AND WIND



MET'MAP, la Météo Aéronautique d'un coup d'oeil ! - Copyright ORBIFLY Décembre 2007 - Disclaimer

ORBIFLY MET'MAP TEAM :

Programmation & Développement : Alexandra Zaïnal
Conception & Développement : Baudouin d'Aumeries
Co-Programmation & Développement : Marc-Olivier Méhu
Soutien technique & logistique : Manuel Goepfert

Contact : metmap@orbifly.com




SOURCES & CREDITS :

   NOAA       Earth
Advisory